createdAt,value
2023-01-19T01:04:05.524Z,158.25
2023-01-19T01:05:05.633Z,160.03
2023-01-19T01:06:05.594Z,160.54
2023-01-19T01:07:05.642Z,159.16
2023-01-19T01:08:05.696Z,159.78
2023-01-19T01:09:05.722Z,161.18
2023-01-19T01:10:05.758Z,159.28
2023-01-19T01:11:05.795Z,161.46
2023-01-19T01:12:06.148Z,162.04
2023-01-19T01:13:20.210Z,159.38
2023-01-19T01:14:06.884Z,159.53
2023-01-19T01:15:05.863Z,159.59
2023-01-19T01:16:05.884Z,159.85
2023-01-19T01:17:05.846Z,160.85
2023-01-19T01:18:05.846Z,158.84
2023-01-19T01:19:05.866Z,160.98
2023-01-19T01:20:05.841Z,160.67
2023-01-19T01:21:05.833Z,159.74
2023-01-19T01:22:05.830Z,160.67
2023-01-19T01:23:05.817Z,159.88
2023-01-19T01:24:05.822Z,157.87
2023-01-19T01:25:05.821Z,158.50
2023-01-19T01:26:05.927Z,157.46
2023-01-19T01:27:05.914Z,159.59
2023-01-19T01:28:05.946Z,161.44
2023-01-19T01:29:05.977Z,160.14
2023-01-19T01:30:06.016Z,157.13
2023-01-19T01:31:06.054Z,158.94
2023-01-19T01:32:06.091Z,159.75
2023-01-19T01:33:06.150Z,159.19
2023-01-19T01:34:06.177Z,155.26
2023-01-19T01:35:06.232Z,160.20
2023-01-19T01:36:06.255Z,156.53
2023-01-19T01:37:06.297Z,160.01
2023-01-19T01:38:06.345Z,158.71
2023-01-19T01:39:06.373Z,158.66
2023-01-19T01:40:06.409Z,159.12
2023-01-19T01:41:06.464Z,159.57
2023-01-19T01:42:06.491Z,161.47
2023-01-19T01:43:06.554Z,159.58
2023-01-19T01:44:07.108Z,160.73
2023-01-19T01:45:06.589Z,158.94
2023-01-19T01:46:06.699Z,158.85
2023-01-19T01:47:06.670Z,159.57
2023-01-19T01:48:06.800Z,161.46
2023-01-19T01:49:06.749Z,158.51
2023-01-19T01:50:06.792Z,156.49
2023-01-19T01:51:06.841Z,159.32
2023-01-19T01:52:06.866Z,160.35
2023-01-19T01:53:08.189Z,156.78
2023-01-19T01:54:06.981Z,159.41
2023-01-19T01:55:06.985Z,156.04
2023-01-19T01:56:07.037Z,159.03
2023-01-19T01:57:07.074Z,161.68
2023-01-19T01:58:07.116Z,158.37
2023-01-19T01:59:07.156Z,161.05
2023-01-19T02:00:07.210Z,162.40
2023-01-19T02:01:07.330Z,162.07
2023-01-19T02:02:07.323Z,161.89
2023-01-19T02:03:07.356Z,158.85
2023-01-19T02:04:07.355Z,161.18
2023-01-19T02:05:07.397Z,159.50
2023-01-19T02:06:07.451Z,161.45
2023-01-19T02:07:07.483Z,158.80
2023-01-19T02:08:07.530Z,162.17
2023-01-19T02:09:07.561Z,160.21
2023-01-19T02:10:07.597Z,160.41
2023-01-19T02:11:07.637Z,159.01
2023-01-19T02:12:07.676Z,161.86
2023-01-19T02:13:07.715Z,159.83
2023-01-19T02:14:07.758Z,159.57
2023-01-19T02:15:07.793Z,161.26
2023-01-19T02:16:07.862Z,159.71
2023-01-19T02:17:07.894Z,162.35
2023-01-19T02:18:07.926Z,158.36
2023-01-19T02:19:07.965Z,160.65
2023-01-19T02:20:10.658Z,161.01
2023-01-19T02:21:08.235Z,160.57
2023-01-19T02:22:08.271Z,156.74
2023-01-19T02:23:08.318Z,159.06
2023-01-19T02:24:08.358Z,161.63
2023-01-19T02:25:08.399Z,158.53
2023-01-19T02:26:08.415Z,159.59
2023-01-19T02:27:08.455Z,159.68
2023-01-19T02:28:08.505Z,158.13
2023-01-19T02:29:08.611Z,158.67
2023-01-19T02:30:08.572Z,159.00
2023-01-19T02:31:08.602Z,158.62
2023-01-19T02:32:08.636Z,160.84
2023-01-19T02:33:08.738Z,157.09
2023-01-19T02:34:08.728Z,158.97
2023-01-19T02:35:08.773Z,160.81
2023-01-19T02:36:08.795Z,158.50
2023-01-19T02:37:08.838Z,157.08
2023-01-19T02:38:08.894Z,159.63
2023-01-19T02:39:08.920Z,155.56
2023-01-19T02:40:08.972Z,157.70
2023-01-19T02:41:08.995Z,159.52
2023-01-19T02:42:09.045Z,159.21
2023-01-19T02:43:09.088Z,159.36
2023-01-19T02:44:09.125Z,159.26
2023-01-19T02:45:09.167Z,158.38
2023-01-19T02:46:09.244Z,160.78
2023-01-19T02:47:09.253Z,160.13
2023-01-19T02:48:09.302Z,157.08
2023-01-19T02:49:09.344Z,156.95
2023-01-19T02:50:09.408Z,159.58
2023-01-19T02:51:09.447Z,158.98
2023-01-19T02:52:09.498Z,157.39
2023-01-19T02:53:09.546Z,159.73
2023-01-19T02:54:09.596Z,158.71
2023-01-19T02:55:09.642Z,155.92
2023-01-19T02:56:09.691Z,157.44
2023-01-19T02:57:09.744Z,160.25
2023-01-19T03:16:10.839Z,159.49
2023-01-19T06:15:14.391Z,146.22
2023-01-19T06:16:14.408Z,149.35
2023-01-19T06:17:14.400Z,148.69
2023-01-19T06:18:14.399Z,150.81
2023-01-19T06:19:14.420Z,149.69
2023-01-19T06:20:14.452Z,148.90
2023-01-19T06:21:14.527Z,151.45
2023-01-19T06:22:14.629Z,150.65
2023-01-19T06:23:14.742Z,149.85
2023-01-19T06:24:14.841Z,148.43
2023-01-19T06:25:15.010Z,147.81
2023-01-19T06:26:15.116Z,143.18
2023-01-19T06:27:15.089Z,144.82
2023-01-19T06:28:15.083Z,144.54
2023-01-19T06:29:15.091Z,144.99
2023-01-19T06:30:15.120Z,145.49
2023-01-19T06:31:15.268Z,143.37
2023-01-19T06:32:15.145Z,143.54
2023-01-19T06:33:15.145Z,146.64
2023-01-19T06:34:15.171Z,145.93
2023-01-19T06:42:15.573Z,228.66
2023-01-19T06:43:15.537Z,219.48
2023-01-19T06:44:15.687Z,212.46
2023-01-19T06:45:15.671Z,209.65
2023-01-19T06:46:15.802Z,205.46
2023-01-19T06:47:16.499Z,205.29
2023-01-19T06:48:15.832Z,203.06
2023-01-19T06:49:15.946Z,203.02
2023-01-19T06:50:15.945Z,202.88
2023-01-19T06:52:16.157Z,200.36
2023-01-19T06:53:16.050Z,200.46
2023-01-19T07:03:16.411Z,120.79
2023-01-19T07:04:16.469Z,136.52
2023-01-19T07:05:16.435Z,198.35
2023-01-19T07:06:16.428Z,183.97
2023-01-19T07:07:16.747Z,183.83
2023-01-19T07:08:16.519Z,175.95
2023-01-19T07:09:16.979Z,172.44
2023-01-19T07:10:16.551Z,176.51
2023-01-19T07:11:26.649Z,166.16
2023-01-19T07:12:17.572Z,163.13
2023-01-19T07:13:16.560Z,155.29
2023-01-19T07:14:16.565Z,152.75
2023-01-19T07:15:16.619Z,153.45
2023-01-19T07:16:16.573Z,152.62
2023-01-19T07:17:16.537Z,170.81
2023-01-19T07:18:16.547Z,147.39
2023-01-19T07:19:16.531Z,152.39
2023-01-19T07:20:16.528Z,158.56
2023-01-19T07:21:16.523Z,163.58
2023-01-19T07:22:16.604Z,165.80
2023-01-19T07:23:16.590Z,166.24
2023-01-19T07:24:16.504Z,169.30
2023-01-19T07:25:17.152Z,164.19
2023-01-19T07:26:18.156Z,161.01
2023-01-19T07:27:16.484Z,158.47
2023-01-19T07:28:16.484Z,119.33
2023-01-19T07:29:16.462Z,117.00
2023-01-19T07:30:16.493Z,124.81
2023-01-19T07:31:16.596Z,129.27
2023-01-19T07:32:16.453Z,131.77
2023-01-19T07:33:16.479Z,128.54
2023-01-19T07:34:16.530Z,132.04
2023-01-19T07:35:16.586Z,122.49
2023-01-19T07:36:16.785Z,117.60
2023-01-19T07:37:16.671Z,117.58
2023-01-19T07:38:16.736Z,112.72
2023-01-19T07:39:16.687Z,111.41
2023-01-19T07:40:16.705Z,105.59
2023-01-19T07:41:16.706Z,101.20
2023-01-19T07:42:16.700Z,103.59
2023-01-19T07:43:16.724Z,101.93
2023-01-19T07:44:16.755Z,127.85
2023-01-19T07:45:16.769Z,133.42
2023-01-19T08:08:17.475Z,147.60
2023-01-19T08:09:17.508Z,145.18
2023-01-19T08:23:17.955Z,135.27
2023-01-19T08:31:21.696Z,132.59
2023-01-19T08:32:18.294Z,132.98
2023-01-19T08:33:18.076Z,133.77
2023-01-19T08:35:18.063Z,136.28
2023-01-19T08:36:18.049Z,142.11
2023-01-19T08:37:18.102Z,143.99
2023-01-19T08:38:18.114Z,145.93
2023-01-19T08:39:18.277Z,143.79
2023-01-19T08:40:18.023Z,144.28
2023-01-19T08:41:18.033Z,146.54
2023-01-19T08:42:18.019Z,149.29
2023-01-19T08:43:18.043Z,146.73
2023-01-19T08:44:17.992Z,145.88
2023-01-19T08:45:18.005Z,149.28
2023-01-19T08:46:18.028Z,149.10
2023-01-19T08:47:18.014Z,147.26
2023-01-19T08:48:17.969Z,147.80
2023-01-19T08:49:17.955Z,149.48
2023-01-19T08:50:17.953Z,128.90
2023-01-19T08:51:18.071Z,130.90
2023-01-19T08:52:18.113Z,129.07
2023-01-19T08:53:18.070Z,128.34
2023-01-19T08:54:18.729Z,128.87
2023-01-19T08:55:18.176Z,130.04
2023-01-19T08:56:20.579Z,131.97
2023-01-19T08:57:18.281Z,133.30
2023-01-19T08:58:18.328Z,132.44
2023-01-19T08:59:18.514Z,132.44
2023-01-19T09:00:18.399Z,134.01
2023-01-19T09:01:18.511Z,135.02
2023-01-19T09:02:18.538Z,135.01
2023-01-19T09:03:18.556Z,134.47
2023-01-19T09:04:18.517Z,135.27
2023-01-19T09:05:18.544Z,136.82
2023-01-19T09:06:18.599Z,135.16
2023-01-19T09:07:18.602Z,135.01
2023-01-19T09:08:18.610Z,136.39
2023-01-19T09:09:18.651Z,135.99
2023-01-19T09:10:18.672Z,136.36
2023-01-19T09:11:18.674Z,134.62
2023-01-19T09:12:18.753Z,135.07
2023-01-19T09:13:18.721Z,133.29
2023-01-19T09:14:18.768Z,132.91
2023-01-19T09:15:18.763Z,123.05
2023-01-19T09:16:18.816Z,122.09
2023-01-19T09:17:18.829Z,121.44
2023-01-19T09:18:18.903Z,115.28
2023-01-19T09:19:18.897Z,120.08
2023-01-19T12:46:26.362Z,114.95
2023-01-19T12:47:25.855Z,114.12
2023-01-19T12:48:25.541Z,115.73
2023-01-19T12:49:25.676Z,113.45
2023-01-19T12:50:25.689Z,115.58
2023-01-19T12:51:25.720Z,114.50
2023-01-19T12:52:25.758Z,114.15
2023-01-19T12:53:25.808Z,115.04
2023-01-19T12:54:25.845Z,114.00
2023-01-19T12:55:25.903Z,111.75
2023-01-19T12:56:25.936Z,112.98
2023-01-19T12:57:25.980Z,110.55
2023-01-19T12:58:26.030Z,111.44
2023-01-19T12:59:26.145Z,111.48
2023-01-19T13:00:26.198Z,112.53
2023-01-19T13:01:26.204Z,113.65
2023-01-19T13:02:26.226Z,113.79
2023-01-19T13:03:26.265Z,111.56
2023-01-19T13:04:26.334Z,110.03
2023-01-19T13:05:26.358Z,110.34
2023-01-19T13:06:26.408Z,110.62
2023-01-19T13:07:26.512Z,110.22
2023-01-19T13:08:26.528Z,111.08
2023-01-19T13:09:26.539Z,109.50
2023-01-19T13:10:26.664Z,107.89
2023-01-19T13:11:30.283Z,110.69
2023-01-19T13:13:26.644Z,111.02
2023-01-19T13:14:26.641Z,109.65
2023-01-19T13:15:26.767Z,110.94
2023-01-19T13:16:26.620Z,112.34
2023-01-19T13:27:49.971Z,25.00
2023-01-19T13:28:49.475Z,25.00
2023-01-19T13:29:50.081Z,25.00
2023-01-19T13:30:49.619Z,25.00
2023-01-19T13:31:49.485Z,25.00
2023-01-19T13:32:49.439Z,24.79
2023-01-19T13:33:49.592Z,25.15
2023-01-19T13:34:49.458Z,25.08
2023-01-19T13:35:49.424Z,31.30
2023-01-19T13:36:49.450Z,25.17
2023-01-19T13:37:49.417Z,32.84
2023-01-19T13:38:49.399Z,36.34
2023-01-19T13:40:49.394Z,27.93
2023-01-19T13:41:49.385Z,29.14
2023-01-19T13:42:49.376Z,28.66
2023-01-19T13:43:49.376Z,22.21
2023-01-19T13:44:49.379Z,22.68
2023-01-19T13:46:49.413Z,47.79
2023-01-19T13:47:49.403Z,53.48
2023-01-19T13:48:49.439Z,56.55
2023-01-19T13:49:49.476Z,54.66
2023-01-19T13:50:49.530Z,51.46
2023-01-19T14:16:50.729Z,55.33
2023-01-19T14:17:50.789Z,55.28
2023-01-19T14:18:50.826Z,56.95
2023-01-19T14:19:50.940Z,56.55
2023-01-19T14:20:50.918Z,54.81
2023-01-19T14:21:50.972Z,58.36
2023-01-19T14:22:51.013Z,53.20
2023-01-19T14:23:51.073Z,55.60
2023-01-19T14:24:51.108Z,57.26
2023-01-19T14:25:51.165Z,55.48
2023-01-19T14:26:51.215Z,55.15
2023-01-19T14:27:51.299Z,55.64
2023-01-19T14:28:51.303Z,58.71
2023-01-19T14:29:51.340Z,54.72
2023-01-19T14:30:51.439Z,56.27
2023-01-19T14:31:51.439Z,56.74
2023-01-19T14:32:51.488Z,55.20
2023-01-19T14:33:51.546Z,58.53
2023-01-19T14:34:51.574Z,57.32
2023-01-19T14:35:51.627Z,56.69
2023-01-19T14:36:51.671Z,57.01
2023-01-19T14:37:51.730Z,56.58
2023-01-19T14:38:51.835Z,59.03
2023-01-19T14:39:51.840Z,60.47
2023-01-19T14:40:51.866Z,56.96
2023-01-19T14:41:51.949Z,58.56
2023-01-19T14:42:51.976Z,59.12
2023-01-19T14:43:52.031Z,58.54
2023-01-19T14:44:52.091Z,57.55
2023-01-19T14:48:52.279Z,57.31
2023-01-19T14:49:52.326Z,63.67
2023-01-19T14:51:02.775Z,62.19
2023-01-19T14:51:53.380Z,62.25
2023-01-19T14:52:52.362Z,58.62
2023-01-19T14:53:52.359Z,60.38
2023-01-19T14:54:52.361Z,61.92
2023-01-19T14:55:52.431Z,58.75
2023-01-19T14:56:52.342Z,58.91
2023-01-19T14:57:52.325Z,58.46
2023-01-19T14:58:52.319Z,58.14
2023-01-19T14:59:53.206Z,62.42
2023-01-19T15:00:52.500Z,57.83
2023-01-19T15:01:52.575Z,59.60
2023-01-19T15:02:52.562Z,62.88
2023-01-19T15:03:52.549Z,60.28
2023-01-19T15:04:52.599Z,60.87
2023-01-19T15:05:52.643Z,60.92
2023-01-19T15:06:52.716Z,60.17
2023-01-19T15:07:52.774Z,60.74
2023-01-19T15:08:52.828Z,63.87
2023-01-19T15:09:52.892Z,58.86
2023-01-19T15:10:52.939Z,61.65
2023-01-19T15:11:53.012Z,59.78
2023-01-19T15:12:53.076Z,59.99
2023-01-19T15:13:53.134Z,59.93
2023-01-19T15:14:53.178Z,59.69
2023-01-19T15:15:53.270Z,60.75
2023-01-19T15:16:53.299Z,60.17
2023-01-19T15:17:55.309Z,62.51
2023-01-19T15:18:53.532Z,63.13
2023-01-19T15:19:53.344Z,59.19
2023-01-19T15:20:53.335Z,59.87
2023-01-19T15:21:53.331Z,60.36
2023-01-19T15:22:53.319Z,58.32
2023-01-19T15:23:53.318Z,59.14
2023-01-19T15:24:53.322Z,61.25
2023-01-19T15:25:54.144Z,60.21
2023-01-19T15:26:53.295Z,61.34
2023-01-19T15:27:53.287Z,58.31
2023-01-19T15:28:53.287Z,62.91
2023-01-19T15:29:53.292Z,60.70
2023-01-19T15:30:53.316Z,62.78
2023-01-19T15:31:53.331Z,63.32
2023-01-19T15:32:53.256Z,61.01
2023-01-19T15:33:53.250Z,64.19
2023-01-19T15:34:53.237Z,60.89
2023-01-19T15:35:53.227Z,62.46
2023-01-19T15:36:53.224Z,62.31
2023-01-19T15:37:53.222Z,60.94
2023-01-19T15:38:53.210Z,63.83
2023-01-19T15:39:53.220Z,61.02
2023-01-19T15:40:53.211Z,60.38
2023-01-19T15:41:53.189Z,62.83
2023-01-19T15:42:53.181Z,62.99
2023-01-19T15:43:53.165Z,59.88
2023-01-19T15:44:53.167Z,63.59
2023-01-19T15:45:53.212Z,59.03
2023-01-19T15:46:54.680Z,60.57
2023-01-19T15:47:53.144Z,64.88
2023-01-19T15:48:53.138Z,63.34
2023-01-19T15:49:53.125Z,64.00
2023-01-19T15:50:53.179Z,64.42
2023-01-19T15:51:53.209Z,58.02
2023-01-19T15:52:53.317Z,63.06
2023-01-19T15:53:53.311Z,60.75
2023-01-19T15:54:53.354Z,60.76
2023-01-19T15:55:53.399Z,62.40
2023-01-19T15:56:53.417Z,62.71
2023-01-19T15:57:53.589Z,60.87
2023-01-19T15:58:54.236Z,61.69
2023-01-19T15:59:53.528Z,61.48
2023-01-19T16:00:53.633Z,62.77
2023-01-19T16:01:53.655Z,62.73
2023-01-19T16:02:53.634Z,61.36
2023-01-19T16:03:53.578Z,61.57
2023-01-19T16:04:53.579Z,60.70
2023-01-19T16:05:53.611Z,62.26
2023-01-19T16:06:53.616Z,63.38
2023-01-19T16:07:53.623Z,61.60
2023-01-19T16:08:53.623Z,59.00
2023-01-19T16:09:53.817Z,62.58
2023-01-19T16:10:53.680Z,60.98
2023-01-19T16:11:53.664Z,61.34
2023-01-19T16:49:54.084Z,60.13
2023-01-19T16:50:54.168Z,60.17
2023-01-19T16:51:54.102Z,59.68
2023-01-19T16:52:54.113Z,61.27
2023-01-19T16:53:54.142Z,60.06
2023-01-19T16:54:54.135Z,59.52
2023-01-19T16:55:54.150Z,60.12
2023-01-19T16:56:54.142Z,60.15
2023-01-19T16:57:54.138Z,63.33
2023-01-19T16:58:54.149Z,60.33
2023-01-19T16:59:54.154Z,59.28
2023-01-19T17:00:54.246Z,59.82
2023-01-19T17:01:54.262Z,58.90
2023-01-19T17:02:54.245Z,59.98
2023-01-19T17:03:54.166Z,61.40
2023-01-19T17:04:54.190Z,60.35
2023-01-19T17:05:54.184Z,62.73
2023-01-19T17:06:54.191Z,59.48
2023-01-19T17:07:54.258Z,61.32
2023-01-19T17:08:54.172Z,61.41
2023-01-19T17:09:54.189Z,61.09
2023-01-19T17:10:54.751Z,63.83
2023-01-19T17:11:54.195Z,62.05
2023-01-19T17:12:54.204Z,61.46
2023-01-19T17:13:54.194Z,60.82
2023-01-19T17:14:54.186Z,62.87
2023-01-19T17:15:54.183Z,61.24
2023-01-19T17:16:54.265Z,60.26
2023-01-19T17:17:54.229Z,61.56
2023-01-19T17:18:54.248Z,60.12
2023-01-19T17:20:54.316Z,63.56
2023-01-19T17:21:54.321Z,58.70
2023-01-19T17:22:54.308Z,61.28
2023-01-19T17:23:54.316Z,60.94
2023-01-19T17:24:54.307Z,63.98
2023-01-19T17:25:54.320Z,61.92
2023-01-19T17:26:54.386Z,64.13
2023-01-19T18:27:55.516Z,59.32
2023-01-19T18:28:55.533Z,58.95
2023-01-19T18:29:55.563Z,56.68
2023-01-19T18:30:55.753Z,57.28
2023-01-19T18:31:55.607Z,58.23
2023-01-19T18:32:55.675Z,58.04
2023-01-19T18:33:55.716Z,56.49
2023-01-19T18:34:55.732Z,58.35
2023-01-19T18:35:55.723Z,59.54
2023-01-19T18:36:55.723Z,60.69
2023-01-19T18:37:55.795Z,58.89
2023-01-19T18:38:55.819Z,59.97
2023-01-19T18:39:55.832Z,57.35
2023-01-19T18:40:55.836Z,58.76
2023-01-19T18:41:55.836Z,59.27
2023-01-19T18:46:55.969Z,59.20
2023-01-19T18:47:56.056Z,60.83
2023-01-19T18:48:55.996Z,60.00
2023-01-19T18:49:56.027Z,59.45
2023-01-19T18:50:56.034Z,59.60
2023-01-19T18:51:56.063Z,58.90
2023-01-19T18:52:56.066Z,59.68
2023-01-19T18:53:56.083Z,61.15
2023-01-19T18:54:56.110Z,57.21
2023-01-19T18:55:56.130Z,57.15
2023-01-19T18:56:56.151Z,57.73
2023-01-19T18:57:56.167Z,58.36
2023-01-19T18:58:56.178Z,57.45
2023-01-19T18:59:56.234Z,60.91
2023-01-19T19:00:56.279Z,60.79
2023-01-19T19:01:56.245Z,60.31
2023-01-19T19:02:56.247Z,60.18
2023-01-19T19:03:56.265Z,60.82
2023-01-19T19:04:56.309Z,61.25
2023-01-19T19:05:56.332Z,58.87
2023-01-19T19:06:56.320Z,58.39
2023-01-19T19:07:56.794Z,58.62
2023-01-19T19:08:56.389Z,58.75
2023-01-19T19:09:56.396Z,59.43
2023-01-19T19:10:56.408Z,56.72
2023-01-19T19:11:56.419Z,58.37
2023-01-19T19:12:56.448Z,56.60
2023-01-19T19:13:56.511Z,59.93
2023-01-19T19:14:56.501Z,59.40
2023-01-19T19:15:56.531Z,62.01
2023-01-19T19:16:56.541Z,58.14
2023-01-19T19:17:56.562Z,58.49
2023-01-19T19:29:56.786Z,59.31
2023-01-19T19:30:58.235Z,56.07
2023-01-19T19:31:56.801Z,56.24
2023-01-19T19:32:56.827Z,58.96
2023-01-19T19:33:56.880Z,59.25
2023-01-19T19:34:56.869Z,56.51
2023-01-19T19:35:56.921Z,61.25
2023-01-19T19:36:56.924Z,58.26
2023-01-19T19:37:56.956Z,55.94
2023-01-19T19:38:56.983Z,57.10
2023-01-19T19:39:57.000Z,56.54
2023-01-19T19:40:57.043Z,59.70
2023-01-19T19:41:57.060Z,59.11
2023-01-19T19:42:58.825Z,55.33
2023-01-19T19:43:57.101Z,55.98
2023-01-19T19:44:57.122Z,58.61
2023-01-19T19:45:57.149Z,55.96
2023-01-19T19:46:57.158Z,58.91
2023-01-19T19:47:57.171Z,56.63
2023-01-19T19:48:57.198Z,58.87
2023-01-19T19:49:57.206Z,56.46
2023-01-19T19:51:01.967Z,56.86
2023-01-19T19:51:58.226Z,56.92
2023-01-19T19:52:57.220Z,57.10
2023-01-19T19:53:57.216Z,57.52
2023-01-19T19:54:57.287Z,55.69
2023-01-19T19:55:57.202Z,58.28
2023-01-19T19:56:57.308Z,56.83
2023-01-19T19:57:57.181Z,57.83
2023-01-19T19:58:57.267Z,58.97
2023-01-19T19:59:57.165Z,55.52
2023-01-19T20:00:57.260Z,56.08
2023-01-19T20:01:57.191Z,56.31
2023-01-19T20:02:57.177Z,56.81
2023-01-19T20:03:57.141Z,56.20
2023-01-19T20:04:57.165Z,58.23
2023-01-19T20:05:57.126Z,54.86
2023-01-19T20:06:57.117Z,55.26
2023-01-19T20:07:57.118Z,54.68
2023-01-19T20:08:57.117Z,54.15
2023-01-19T20:09:57.094Z,56.89
2023-01-19T20:10:57.120Z,51.90
2023-01-19T20:11:57.814Z,55.74
2023-01-19T20:12:57.166Z,54.27
2023-01-19T20:13:57.187Z,58.86
2023-01-19T20:14:57.209Z,55.65
2023-01-19T20:15:57.276Z,56.28
2023-01-19T20:16:57.246Z,57.51
2023-01-19T20:17:57.281Z,56.65
2023-01-19T20:18:57.297Z,59.28
2023-01-19T20:19:57.319Z,55.98
2023-01-19T20:20:57.335Z,55.82
2023-01-19T20:21:57.420Z,55.57
2023-01-19T20:22:57.382Z,54.49
2023-01-19T20:23:57.405Z,55.42
2023-01-19T20:24:57.415Z,55.90
2023-01-19T20:25:57.493Z,56.28
2023-01-19T20:26:57.445Z,55.46
2023-01-19T20:27:57.501Z,53.65
2023-01-19T20:28:57.496Z,56.75
2023-01-19T20:29:57.509Z,55.15
2023-01-19T20:30:57.533Z,56.43
2023-01-19T20:31:57.575Z,57.34
2023-01-19T20:32:57.585Z,57.23
2023-01-19T20:33:57.657Z,56.06
2023-01-19T20:34:57.627Z,52.81
2023-01-19T20:35:57.721Z,57.26
2023-01-19T20:36:57.672Z,53.83
2023-01-19T20:37:57.690Z,60.96
2023-01-19T20:38:57.727Z,54.44
2023-01-19T20:39:57.792Z,54.21
2023-01-19T20:40:57.758Z,52.65
2023-01-19T20:41:57.798Z,56.94
2023-01-19T20:42:57.818Z,54.81
2023-01-19T20:43:57.835Z,56.77
2023-01-19T20:44:57.853Z,53.77
2023-01-19T20:45:58.872Z,56.91
2023-01-19T20:46:57.939Z,53.63
2023-01-19T20:47:57.942Z,53.53
2023-01-19T20:48:57.968Z,56.26
2023-01-19T20:49:58.004Z,58.05
2023-01-19T20:50:58.036Z,55.23
2023-01-19T20:51:58.054Z,54.36
2023-01-19T20:53:58.102Z,54.11
2023-01-19T20:54:58.117Z,52.88
2023-01-19T20:55:58.128Z,52.78
2023-01-19T20:56:58.149Z,53.77
2023-01-19T20:57:58.177Z,53.70
2023-01-19T20:58:58.187Z,51.87
2023-01-19T20:59:58.222Z,57.18
2023-01-19T21:00:58.329Z,55.04
2023-01-19T21:01:58.314Z,57.32
2023-01-19T21:02:58.305Z,55.32
2023-01-19T21:03:58.326Z,54.30
2023-01-19T21:04:58.331Z,51.48
2023-01-19T21:05:59.613Z,53.08
